createdAt,value
2022-11-01T00:00:05.046Z,14.26
2022-11-01T00:03:14.153Z,14.28
2022-11-01T00:06:15.780Z,14.77
2022-11-01T00:09:17.717Z,14.20
2022-11-01T00:12:19.599Z,14.82
2022-11-01T00:15:21.194Z,14.53
2022-11-01T00:18:22.993Z,14.83
2022-11-01T00:21:24.804Z,15.56
2022-11-01T00:24:26.483Z,15.58
2022-11-01T00:27:28.139Z,15.29
2022-11-01T00:30:29.737Z,15.40
2022-11-01T00:33:31.425Z,15.52
2022-11-01T00:36:33.876Z,15.49
2022-11-01T00:39:35.504Z,14.93
2022-11-01T00:42:37.121Z,14.54
2022-11-01T00:45:38.839Z,14.44
2022-11-01T00:48:40.654Z,14.31
2022-11-01T00:51:42.389Z,14.29
2022-11-01T00:54:43.968Z,14.02
2022-11-01T00:57:45.932Z,13.88
2022-11-01T01:00:48.235Z,13.95
2022-11-01T01:03:50.056Z,13.91
2022-11-01T01:06:52.228Z,13.78
2022-11-01T01:09:54.095Z,13.70
2022-11-01T01:12:55.761Z,13.64
2022-11-01T01:15:57.504Z,13.58
2022-11-01T01:18:59.172Z,13.52
2022-11-01T01:22:01.224Z,13.53
2022-11-01T01:25:02.840Z,13.57
2022-11-01T01:28:05.011Z,13.69
2022-11-01T01:31:10.266Z,13.64
2022-11-01T01:34:11.916Z,15.06
2022-11-01T01:37:15.261Z,15.85
2022-11-01T01:40:16.948Z,16.11
2022-11-01T01:43:18.542Z,16.20
2022-11-01T01:46:20.170Z,16.51
2022-11-01T01:49:21.957Z,16.59
2022-11-01T01:52:23.811Z,16.47
2022-11-01T01:55:32.531Z,16.49
2022-11-01T01:58:49.321Z,16.48
2022-11-01T02:01:51.543Z,16.54
2022-11-01T02:05:00.678Z,16.31
2022-11-01T02:08:03.497Z,16.29
2022-11-01T02:11:07.739Z,16.23
2022-11-01T02:14:09.644Z,16.10
2022-11-01T02:17:30.904Z,16.00
2022-11-01T02:20:50.846Z,15.35
2022-11-01T02:24:19.372Z,14.96
2022-11-01T02:27:48.506Z,14.46
2022-11-01T02:31:08.944Z,14.30
2022-11-01T02:34:18.743Z,14.04
2022-11-01T02:37:23.308Z,13.88
2022-11-01T02:40:35.529Z,13.83
2022-11-01T02:43:47.113Z,13.83
2022-11-01T02:47:01.750Z,13.79
2022-11-01T02:50:08.718Z,13.83
2022-11-01T02:53:11.085Z,14.87
2022-11-01T02:56:12.836Z,16.37
2022-11-01T02:59:19.739Z,16.68
2022-11-01T03:02:40.808Z,16.60
2022-11-01T03:05:51.258Z,16.39
2022-11-01T03:09:04.781Z,16.29
2022-11-01T03:12:12.632Z,16.09
2022-11-01T03:15:28.760Z,15.84
2022-11-01T03:18:35.750Z,15.77
2022-11-01T03:21:42.343Z,15.71
2022-11-01T03:25:29.660Z,15.57
2022-11-01T03:28:39.185Z,15.21
2022-11-01T03:31:42.698Z,15.45
2022-11-01T03:34:45.466Z,15.18
2022-11-01T03:37:50.933Z,15.39
2022-11-01T03:41:00.727Z,15.28
2022-11-01T03:44:04.520Z,15.07
2022-11-01T03:47:06.234Z,14.98
2022-11-01T03:50:22.424Z,14.99
2022-11-01T03:53:24.588Z,14.89
2022-11-01T03:56:26.148Z,14.78
2022-11-01T03:59:28.164Z,14.80
2022-11-01T04:02:29.770Z,14.72
2022-11-01T04:05:32.942Z,14.50
2022-11-01T04:08:35.030Z,14.48
2022-11-01T04:11:36.699Z,14.44
2022-11-01T04:14:56.979Z,14.35
2022-11-01T04:18:42.859Z,14.37
2022-11-01T04:21:44.959Z,14.33
2022-11-01T04:24:46.567Z,14.31
2022-11-01T04:27:48.189Z,14.27
2022-11-01T04:30:49.985Z,14.33
2022-11-01T04:33:51.707Z,14.37
2022-11-01T04:36:53.266Z,14.34
2022-11-01T04:39:54.866Z,14.30
2022-11-01T04:42:56.494Z,14.38
2022-11-01T04:45:58.237Z,14.46
2022-11-01T04:48:59.853Z,14.43
2022-11-01T04:52:01.459Z,14.41
2022-11-01T04:55:03.132Z,14.58
2022-11-01T04:58:06.769Z,14.52
2022-11-01T05:01:09.170Z,14.41
2022-11-01T05:04:10.902Z,14.45
2022-11-01T05:07:13.107Z,14.49
2022-11-01T05:10:14.667Z,14.42
2022-11-01T05:13:16.270Z,14.48
2022-11-01T05:16:19.692Z,14.49
2022-11-01T05:19:21.729Z,14.42
2022-11-01T05:22:23.369Z,14.44
2022-11-01T05:25:25.166Z,14.39
2022-11-01T05:28:26.779Z,14.40
2022-11-01T05:31:28.410Z,14.39
2022-11-01T05:34:30.197Z,14.44
2022-11-01T05:37:31.814Z,14.36
2022-11-01T05:40:33.485Z,14.45
2022-11-01T05:43:35.127Z,14.50
2022-11-01T05:46:37.097Z,14.41
2022-11-01T05:49:38.780Z,14.43
2022-11-01T05:52:41.260Z,14.40
2022-11-01T05:55:42.827Z,14.35
2022-11-01T05:58:44.513Z,14.38
2022-11-01T06:01:46.236Z,14.39
2022-11-01T06:04:47.926Z,14.45
2022-11-01T06:07:49.507Z,14.45
2022-11-01T06:10:51.393Z,14.48
2022-11-01T06:13:59.419Z,14.45
2022-11-01T06:17:01.070Z,14.45
2022-11-01T06:20:02.733Z,14.58
2022-11-01T06:23:11.517Z,14.69
2022-11-01T06:26:13.205Z,14.64
2022-11-01T06:29:14.849Z,14.74
2022-11-01T06:32:16.480Z,14.66
2022-11-01T06:35:18.120Z,14.87
2022-11-01T06:38:19.763Z,15.00
2022-11-01T06:41:21.431Z,14.91
2022-11-01T06:44:23.284Z,14.88
2022-11-01T06:47:25.150Z,14.90
2022-11-01T06:50:26.856Z,14.88
2022-11-01T06:53:28.541Z,14.81
2022-11-01T06:56:30.158Z,14.60
2022-11-01T06:59:31.710Z,14.60
2022-11-01T07:02:33.553Z,14.45
2022-11-01T07:05:37.752Z,14.31
2022-11-01T07:08:39.459Z,14.25
2022-11-01T07:11:41.153Z,14.12
2022-11-01T07:14:42.767Z,14.11
2022-11-01T07:17:45.744Z,14.09
2022-11-01T07:23:54.291Z,14.02
2022-11-01T07:26:55.887Z,14.02
2022-11-01T07:29:57.496Z,13.99
2022-11-01T07:33:01.969Z,14.02
2022-11-01T07:36:04.629Z,14.02
2022-11-01T07:39:06.344Z,14.03
2022-11-01T07:42:08.042Z,14.10
2022-11-01T07:45:13.138Z,14.20
2022-11-01T07:48:17.479Z,14.40
2022-11-01T07:51:19.147Z,14.56
2022-11-01T07:54:20.752Z,14.63
2022-11-01T07:57:22.367Z,14.66
2022-11-01T08:00:25.133Z,14.60
2022-11-01T08:03:26.794Z,14.69
2022-11-01T08:06:28.420Z,14.84
2022-11-01T08:09:30.005Z,14.94
2022-11-01T08:12:31.857Z,15.01
2022-11-01T08:15:34.246Z,15.04
2022-11-01T08:18:35.929Z,15.05
2022-11-01T08:21:37.891Z,15.23
2022-11-01T08:24:39.938Z,15.27
2022-11-01T08:27:42.388Z,15.33
2022-11-01T08:30:45.627Z,15.31
2022-11-01T08:33:47.353Z,15.45
2022-11-01T08:36:49.021Z,15.55
2022-11-01T08:39:50.682Z,15.55
2022-11-01T08:42:52.294Z,15.58
2022-11-01T08:45:53.882Z,15.70
2022-11-01T08:49:00.570Z,15.73
2022-11-01T08:52:02.257Z,15.79
2022-11-01T08:55:04.231Z,15.86
2022-11-01T08:58:06.914Z,15.84
2022-11-01T09:01:08.721Z,15.86
2022-11-01T09:04:10.491Z,15.87
2022-11-01T09:07:12.146Z,15.79
2022-11-01T09:10:14.203Z,15.74
2022-11-01T09:13:15.842Z,15.72
2022-11-01T09:16:17.581Z,15.69
2022-11-01T09:19:19.374Z,15.76
2022-11-01T09:22:21.362Z,15.77
2022-11-01T09:25:22.988Z,15.74
2022-11-01T09:28:24.586Z,15.78
2022-11-01T09:31:26.248Z,15.85
2022-11-01T09:34:27.923Z,15.85
2022-11-01T09:37:29.599Z,15.79
2022-11-01T09:40:39.167Z,15.80
2022-11-01T09:43:45.310Z,15.81
2022-11-01T09:46:59.733Z,15.67
2022-11-01T09:50:18.905Z,15.72
2022-11-01T09:53:23.528Z,15.73
2022-11-01T09:56:33.974Z,15.68
2022-11-01T09:59:45.541Z,15.71
2022-11-01T10:03:16.159Z,15.75
2022-11-01T10:06:22.232Z,15.80
2022-11-01T10:09:47.248Z,15.79
2022-11-01T10:13:00.686Z,15.85
2022-11-01T10:16:15.077Z,15.92
2022-11-01T10:19:19.394Z,15.95
2022-11-01T10:22:43.029Z,15.90
2022-11-01T10:25:51.320Z,15.87
2022-11-01T10:29:04.966Z,15.87
2022-11-01T10:32:23.476Z,15.81
2022-11-01T10:35:40.547Z,15.81
2022-11-01T10:42:15.722Z,15.81
2022-11-01T10:45:19.509Z,15.80
2022-11-01T10:48:33.189Z,15.82
2022-11-01T10:51:36.361Z,15.91
2022-11-01T10:54:41.323Z,15.96
2022-11-01T10:57:49.328Z,16.08
2022-11-01T11:00:52.089Z,16.23
2022-11-01T11:03:57.292Z,16.27
2022-11-01T11:06:58.953Z,16.27
2022-11-01T11:13:09.893Z,16.30
2022-11-01T11:16:35.409Z,16.34
2022-11-01T11:19:41.530Z,16.45
2022-11-01T11:22:43.412Z,16.76
2022-11-01T11:25:45.626Z,16.98
2022-11-01T11:28:54.492Z,16.91
2022-11-01T11:31:59.228Z,16.77
2022-11-01T11:35:06.745Z,17.24
2022-11-01T11:38:14.615Z,17.71
2022-11-01T11:41:39.752Z,17.15
2022-11-01T11:44:44.661Z,16.81
2022-11-01T11:47:49.843Z,16.39
2022-11-01T11:51:01.657Z,16.41
2022-11-01T11:54:08.349Z,16.17
2022-11-01T11:57:25.892Z,16.35
2022-11-01T12:00:29.570Z,16.65
2022-11-01T12:03:48.707Z,16.94
2022-11-01T12:06:50.590Z,16.94
2022-11-01T12:09:52.375Z,16.64
2022-11-01T12:12:54.433Z,17.14
2022-11-01T12:16:24.746Z,17.12
2022-11-01T12:19:31.741Z,16.73
2022-11-01T12:22:35.042Z,16.59
2022-11-01T12:25:38.151Z,16.56
2022-11-01T12:28:45.600Z,16.63
2022-11-01T12:31:49.416Z,16.82
2022-11-01T12:34:53.919Z,16.63
2022-11-01T12:38:32.494Z,16.42
2022-11-01T12:41:44.695Z,16.00
2022-11-01T12:44:51.644Z,16.02
2022-11-01T12:47:59.139Z,16.19
2022-11-01T12:51:10.149Z,16.05
2022-11-01T12:54:19.911Z,16.27
2022-11-01T12:57:21.827Z,16.94
2022-11-01T13:00:27.060Z,17.23
2022-11-01T13:04:02.399Z,17.13
2022-11-01T13:07:25.204Z,17.43
2022-11-01T13:10:33.347Z,17.90
2022-11-01T13:13:56.461Z,18.21
2022-11-01T13:17:21.623Z,18.48
2022-11-01T13:20:38.186Z,18.38
2022-11-01T13:23:43.422Z,18.54
2022-11-01T13:26:58.589Z,17.98
2022-11-01T13:30:05.441Z,17.77
2022-11-01T13:33:27.272Z,17.33
2022-11-01T13:36:39.246Z,18.17
2022-11-01T13:40:07.515Z,18.83
2022-11-01T13:43:47.602Z,18.32
2022-11-01T13:47:08.304Z,18.61
2022-11-01T13:50:16.820Z,19.07
2022-11-01T13:53:28.350Z,19.59
2022-11-01T13:56:42.843Z,19.69
2022-11-01T13:59:55.652Z,19.06
2022-11-01T14:02:59.147Z,19.04
2022-11-01T14:06:11.209Z,19.19
2022-11-01T14:09:29.890Z,19.50
2022-11-01T14:12:40.926Z,19.78
2022-11-01T14:15:55.672Z,19.48
2022-11-01T14:19:03.039Z,19.36
2022-11-01T14:22:25.053Z,19.07
2022-11-01T14:25:30.835Z,19.16
2022-11-01T14:28:32.441Z,19.04
2022-11-01T14:31:35.131Z,18.52
2022-11-01T14:34:38.872Z,18.24
2022-11-01T14:37:44.284Z,17.81
2022-11-01T14:40:53.225Z,17.60
2022-11-01T14:47:25.919Z,16.66
2022-11-01T14:50:39.169Z,16.54
2022-11-01T14:53:42.378Z,16.51
2022-11-01T14:56:50.630Z,16.49
2022-11-01T14:59:53.668Z,16.51
2022-11-01T15:06:23.831Z,16.46
2022-11-01T15:09:28.786Z,16.30
2022-11-01T15:12:35.281Z,16.26
2022-11-01T15:15:38.143Z,16.24
2022-11-01T15:18:46.955Z,16.12
2022-11-01T15:21:48.733Z,15.99
2022-11-01T15:25:02.112Z,15.91
2022-11-01T15:28:05.092Z,15.90
2022-11-01T15:31:07.740Z,15.86
2022-11-01T15:34:24.422Z,15.84
2022-11-01T15:37:30.500Z,15.81
2022-11-01T15:40:37.151Z,15.79
2022-11-01T15:43:38.726Z,15.88
2022-11-01T15:46:42.829Z,15.98
2022-11-01T15:49:53.957Z,16.13
2022-11-01T15:52:56.373Z,16.03
2022-11-01T15:56:07.283Z,16.08
2022-11-01T15:59:20.983Z,15.88
2022-11-01T16:02:29.622Z,15.70
2022-11-01T16:05:56.848Z,15.72
2022-11-01T16:09:05.908Z,15.73
2022-11-01T16:12:20.152Z,15.54
2022-11-01T16:15:33.688Z,15.44
2022-11-01T16:18:37.932Z,15.44
2022-11-01T16:21:39.896Z,15.31
2022-11-01T16:24:41.562Z,15.21
2022-11-01T16:28:11.169Z,15.13
2022-11-01T16:31:29.362Z,15.06
2022-11-01T16:34:34.517Z,15.00
2022-11-01T16:37:42.961Z,14.91
2022-11-01T16:40:44.604Z,14.87
2022-11-01T16:43:54.150Z,14.83
2022-11-01T16:46:55.856Z,14.74
2022-11-01T16:49:57.499Z,14.73
2022-11-01T16:52:59.268Z,14.64
2022-11-01T16:56:34.311Z,14.51
2022-11-01T16:59:31.002Z,14.49
2022-11-01T17:02:32.999Z,14.43
2022-11-01T17:05:35.393Z,14.20
2022-11-01T17:08:37.433Z,14.20
2022-11-01T17:11:39.067Z,14.09
2022-11-01T17:17:48.601Z,13.67
2022-11-01T17:20:50.469Z,13.46
2022-11-01T17:23:52.797Z,13.32
2022-11-01T17:26:57.875Z,13.05
2022-11-01T17:29:59.474Z,12.98
2022-11-01T17:33:01.053Z,12.86
2022-11-01T17:36:02.893Z,12.88
2022-11-01T17:39:04.603Z,12.75
2022-11-01T17:42:06.245Z,12.63
2022-11-01T17:45:10.148Z,12.53
2022-11-01T17:48:13.056Z,12.54
2022-11-01T17:51:14.666Z,12.39
2022-11-01T17:54:16.544Z,12.44
2022-11-01T17:57:18.177Z,12.36
2022-11-01T18:00:19.835Z,12.27
2022-11-01T18:03:21.525Z,12.36
2022-11-01T18:06:23.197Z,12.21
2022-11-01T18:09:25.123Z,12.11
2022-11-01T18:12:34.873Z,12.08
2022-11-01T18:15:36.557Z,12.00
2022-11-01T18:18:41.034Z,11.96
2022-11-01T18:21:48.920Z,11.88
2022-11-01T18:24:57.376Z,11.86
2022-11-01T18:28:01.303Z,11.73
2022-11-01T18:31:15.987Z,11.78
2022-11-01T18:34:33.553Z,11.71
2022-11-01T18:38:13.410Z,11.61
2022-11-01T18:41:20.031Z,11.57
2022-11-01T18:44:21.745Z,11.72
2022-11-01T18:47:30.017Z,11.71
2022-11-01T18:50:31.736Z,11.74
2022-11-01T18:53:34.216Z,11.67
2022-11-01T18:56:40.078Z,11.57
2022-11-01T18:59:41.841Z,11.57
2022-11-01T19:02:43.484Z,11.58
2022-11-01T19:05:45.088Z,11.69
2022-11-01T19:08:56.063Z,11.68
2022-11-01T19:12:02.571Z,11.57
2022-11-01T19:15:11.621Z,11.44
2022-11-01T19:18:19.081Z,11.35
2022-11-01T19:21:22.494Z,11.34
2022-11-01T19:24:36.732Z,11.22
2022-11-01T19:27:38.369Z,11.32
2022-11-01T19:30:40.009Z,11.29
2022-11-01T19:33:46.784Z,11.16
2022-11-01T19:36:49.065Z,11.36
2022-11-01T19:39:52.158Z,11.32
2022-11-01T19:42:54.988Z,11.28
2022-11-01T19:45:57.511Z,11.21
2022-11-01T19:49:00.848Z,11.18
2022-11-01T19:52:08.341Z,11.19
2022-11-01T19:55:35.856Z,11.02
2022-11-01T19:58:58.519Z,11.33
2022-11-01T20:02:04.041Z,11.36
2022-11-01T20:05:28.679Z,11.48
2022-11-01T20:08:33.589Z,11.26
2022-11-01T20:11:35.215Z,11.26
2022-11-01T20:14:37.171Z,11.42
2022-11-01T20:17:38.813Z,11.25
2022-11-01T20:20:43.938Z,11.29
2022-11-01T20:23:45.787Z,11.27
2022-11-01T20:26:47.437Z,11.24
2022-11-01T20:29:49.026Z,11.45
2022-11-01T20:32:51.448Z,11.25
2022-11-01T20:35:53.296Z,11.03
2022-11-01T20:38:55.270Z,11.06
2022-11-01T20:41:56.888Z,11.14
2022-11-01T20:44:58.445Z,11.28
2022-11-01T20:48:00.329Z,11.45
2022-11-01T20:51:02.021Z,11.36
2022-11-01T20:54:03.728Z,11.21
2022-11-01T20:57:05.471Z,11.47
2022-11-01T21:00:09.967Z,11.44
2022-11-01T21:03:15.198Z,11.27
2022-11-01T21:06:18.132Z,11.23
2022-11-01T21:09:39.304Z,11.15
2022-11-01T21:12:47.532Z,11.17
2022-11-01T21:15:49.212Z,11.11
2022-11-01T21:18:53.723Z,11.11
2022-11-01T21:21:58.150Z,11.29
2022-11-01T21:25:00.137Z,11.11
2022-11-01T21:28:04.519Z,11.00
2022-11-01T21:31:15.189Z,10.96
2022-11-01T21:34:24.585Z,10.76
2022-11-01T21:37:28.554Z,10.65
2022-11-01T21:40:30.170Z,10.55
2022-11-01T21:43:35.188Z,10.47
2022-11-01T21:46:37.839Z,10.40
2022-11-01T21:49:39.869Z,10.33
2022-11-01T21:52:41.498Z,10.22
2022-11-01T21:55:43.097Z,10.28
2022-11-01T21:58:44.820Z,10.16
2022-11-01T22:01:48.189Z,10.11
2022-11-01T22:04:49.924Z,10.02
2022-11-01T22:07:51.675Z,9.97
2022-11-01T22:10:53.330Z,9.98
2022-11-01T22:13:55.034Z,9.93
2022-11-01T22:16:56.911Z,9.85
2022-11-01T22:19:58.609Z,9.80
2022-11-01T22:23:00.437Z,9.71
2022-11-01T22:26:02.268Z,9.75
2022-11-01T22:29:04.011Z,9.73
2022-11-01T22:32:05.595Z,9.70
2022-11-01T22:35:07.516Z,9.73
2022-11-01T22:38:19.066Z,9.77
2022-11-01T22:41:31.866Z,10.10
2022-11-01T22:44:37.816Z,10.44
2022-11-01T22:47:39.511Z,10.45
2022-11-01T22:50:41.182Z,10.53
2022-11-01T22:53:42.824Z,10.44
2022-11-01T22:56:44.695Z,10.48
2022-11-01T22:59:51.287Z,10.64
2022-11-01T23:02:59.163Z,10.49
2022-11-01T23:06:07.753Z,10.54
2022-11-01T23:09:18.815Z,10.41
2022-11-01T23:12:42.427Z,10.45
2022-11-01T23:15:44.835Z,10.80
2022-11-01T23:18:46.624Z,11.23
2022-11-01T23:21:48.294Z,11.74
2022-11-01T23:24:51.990Z,11.80
2022-11-01T23:27:54.210Z,11.80
2022-11-01T23:30:57.270Z,11.88
2022-11-01T23:33:58.905Z,11.91
2022-11-01T23:37:00.580Z,11.54
2022-11-01T23:40:04.101Z,11.51
2022-11-01T23:43:20.870Z,11.46
2022-11-01T23:46:24.219Z,11.42
2022-11-01T23:49:29.663Z,11.69
2022-11-01T23:52:46.571Z,11.71
2022-11-01T23:55:49.904Z,11.44
2022-11-01T23:58:55.813Z,11.03
